Teruhou Maru No.22 — JD3202 — position and weather

sailwx.info

Track history (hours):
 
Tides and Currents Weather Stations Pressure Air Temp Water Temp Dewpoint Dewpoint Depression Visibility Wind Speed Wind Dir Waves Ship Positions

Teruhou Maru No.22

Last reported at 2016-May-06 21:30 UTC. Time now 2016-May-06 22:31 UTC.
Position N 34°31' E 135°24'.

Length 76 m; draft 5 m.

Type: Cargo ship. MMSI: 431002552.

Date/timePositionNaut miles runAvg speedWind from/ knotsBaromVisibWave heightAir tempDewpointWater temp
2016-May-06 21:30N 34°31' E 135°24'0 0.0
2016-May-06 20:30N 34°31' E 135°24'0 0.0
2016-May-06 19:24N 34°31' E 135°24'0 0.0
2016-May-06 18:30N 34°31' E 135°24'0 0.0
2016-May-06 17:24N 34°31' E 135°24'0 0.0
2016-May-06 16:30N 34°31' E 135°24'0 0.0
2016-May-06 15:30N 34°31' E 135°24'0 0.0
2016-May-06 14:30N 34°31' E 135°24'0 0.0
2016-May-06 12:30N 34°31' E 135°24'0 0.1
2016-May-06 11:33N 34°31' E 135°24'8 7.6
2016-May-06 10:33N 34°29' E 135°16'1812.8
2016-May-06 09:10N 34°15' E 135°03'222 9.0
2016-May-05 08:33N 34°58' E 139°28'1211.5
2016-May-05 07:33N 35°06' E 139°38'1110.7
2016-May-05 06:33N 35°14' E 139°46'1110.7
2016-May-05 05:33N 35°25' E 139°43'7 5.0
2016-May-05 04:04N 35°21' E 139°51'0 0.0
2016-May-04 14:10N 35°21' E 139°51'1 1.2
2016-May-04 13:33N 35°22' E 139°51'2 1.9
2016-May-04 12:15N 35°22' E 139°54'0 0.0
2016-May-04 11:33N 35°22' E 139°54'0 0.0
2016-May-04 10:27N 35°22' E 139°54'0 0.0
2016-May-04 07:33N 35°22' E 139°54'0 0.0
2016-May-04 05:21N 35°22' E 139°54'0 0.0
2016-May-04 04:21N 35°22' E 139°54'0 0.0
2016-May-04 03:27N 35°22' E 139°54'0 0.0
2016-May-04 02:33N 35°22' E 139°54'0 0.0
2016-May-04 01:30N 35°22' E 139°54'0 0.0
2016-May-04 00:18N 35°22' E 139°54'0 0.0
2016-May-03 23:33N 35°22' E 139°54'0 0.0
2016-May-03 22:24N 35°22' E 139°54'0 0.0
2016-May-03 21:27N 35°22' E 139°54'0 0.0
2016-May-03 20:33N 35°22' E 139°54'0 0.0
2016-May-03 19:21N 35°22' E 139°54'0 0.0
2016-May-03 18:21N 35°22' E 139°54'0 0.0
2016-May-03 17:33N 35°22' E 139°54'0 0.0
2016-May-03 16:33N 35°22' E 139°54'0 0.0
2016-May-03 15:33N 35°22' E 139°54'0 0.0
2016-May-03 14:30N 35°22' E 139°54'0 0.0
2016-May-03 13:30N 35°22' E 139°54'0 0.0
2016-May-03 12:33N 35°22' E 139°54'0 0.0
2016-May-03 11:33N 35°22' E 139°54'0 0.0
2016-May-03 10:33N 35°22' E 139°54'0 0.0
2016-May-03 09:30N 35°22' E 139°54'0 0.0
2016-May-03 08:33N 35°22' E 139°54'0 0.0
2016-May-03 07:33N 35°22' E 139°54'0 0.0
2016-May-03 06:33N 35°22' E 139°54'0 0.0
2016-May-03 05:30N 35°22' E 139°54'0 0.1
2016-May-03 04:33N 35°22' E 139°54'0 0.2
2016-May-03 03:28N 35°22' E 139°54'0 0.0
2016-May-03 02:31N 35°22' E 139°54'0 0.0
2016-May-03 01:31N 35°22' E 139°54'0 0.0
2016-May-03 00:31N 35°22' E 139°54'0 0.0
2016-May-02 23:31N 35°22' E 139°54'0 0.0
2016-May-02 22:31N 35°22' E 139°54'0 0.0
2016-May-02 21:31N 35°22' E 139°54'0 0.0
2016-May-02 20:31N 35°22' E 139°54'0 0.0
2016-May-02 19:31N 35°22' E 139°54'0 0.0
2016-May-02 18:31N 35°22' E 139°54'0 0.0
2016-May-02 17:31N 35°22' E 139°54'0 0.0
2016-May-02 16:31N 35°22' E 139°54'0 0.0
2016-May-02 15:31N 35°22' E 139°54'0 0.0
2016-May-02 14:31N 35°22' E 139°54'0 0.0
2016-May-02 13:28N 35°22' E 139°54'0 0.0
2016-May-02 12:31N 35°22' E 139°54'0 0.0
2016-May-02 11:25N 35°22' E 139°54'0 0.0
2016-May-02 10:31N 35°22' E 139°54'4 4.5
2016-May-02 09:33N 35°25' E 139°50'1212.4
2016-May-02 08:33N 35°36' E 139°57'4 4.1
2016-May-02 07:27N 35°41' E 139°57'0 0.0
2016-May-02 06:30N 35°41' E 139°57'0 0.0
2016-May-02 05:30N 35°41' E 139°57'0 0.0
2016-May-02 04:33N 35°41' E 139°57'0 0.0
2016-May-02 03:27N 35°41' E 139°57'0 0.0
2016-May-02 02:33N 35°41' E 139°57'0 0.0
2016-May-02 01:30N 35°41' E 139°57'0 0.0
2016-May-02 00:30N 35°41' E 139°57'0 0.0
2016-May-01 23:33N 35°41' E 139°57'0 0.0
2016-May-01 22:33N 35°41' E 139°57'0 0.0
2016-May-01 21:33N 35°41' E 139°57'0 0.0
2016-May-01 20:27N 35°41' E 139°57'0 0.0
2016-May-01 19:33N 35°41' E 139°57'0 0.0
2016-May-01 18:33N 35°41' E 139°57'0 0.0
2016-May-01 17:33N 35°41' E 139°57'0 0.0
2016-May-01 16:30N 35°41' E 139°57'0 0.0
2016-May-01 15:33N 35°41' E 139°57'0 0.0
2016-May-01 14:33N 35°41' E 139°57'0 0.0
2016-May-01 13:33N 35°41' E 139°57'0 0.0
2016-May-01 12:33N 35°41' E 139°57'0 0.0
2016-May-01 11:30N 35°41' E 139°57'0 0.0
2016-May-01 10:30N 35°41' E 139°57'0 0.0
2016-May-01 09:30N 35°41' E 139°57'0 0.0
2016-May-01 08:30N 35°41' E 139°57'0 0.0
2016-May-01 07:27N 35°41' E 139°57'0 0.0
2016-May-01 06:33N 35°41' E 139°57'0 0.0
2016-May-01 05:30N 35°41' E 139°57'0 0.0
2016-May-01 04:24N 35°41' E 139°57'0 0.0
2016-May-01 03:30N 35°41' E 139°57'0 0.0
2016-May-01 02:33N 35°41' E 139°57'0 0.0
2016-May-01 01:18N 35°41' E 139°57'0 0.0
2016-May-01 00:30N 35°41' E 139°57'0 0.0
2016-Apr-30 23:30N 35°41' E 139°57'0 0.0
2016-Apr-30 22:34N 35°41' E 139°57'7 6.8
2016-Apr-30 21:34N 35°34' E 139°56'1010.3
2016-Apr-30 20:33N 35°26' E 139°48'1010.2
2016-Apr-30 19:33N 35°16' E 139°46'24610.3
2016-Apr-29 19:33N 34°03' E 135°01'1211.8
2016-Apr-29 18:33N 34°15' E 134°59'1110.7
2016-Apr-29 17:33N 34°26' E 135°00'1010.5
2016-Apr-29 16:33N 34°36' E 135°03'12 8.7
2016-Apr-29 15:12N 34°40' E 134°49'5 0.1
2016-Apr-28 02:09N 34°37' E 134°54'812.7
2016-Apr-28 01:33N 34°36' E 135°03'  
Track history (hours):
 
Tides and Currents Weather Stations Pressure Air Temp Water Temp Dewpoint Dewpoint Depression Visibility Wind Speed Wind Dir Waves Ship Positions

Teruhou Maru No.22

Last reported at 2016-May-06 21:30 UTC. Time now 2016-May-06 22:31 UTC.
Position N 34°31' E 135°24'.

Length 76 m; draft 5 m.

Type: Cargo ship. MMSI: 431002552.

Date/timePositionNaut miles runAvg speedWind from/ knotsBaromVisibWave heightAir tempDewpointWater temp
2016-May-06 21:30N 34°31' E 135°24'0 0.0
2016-May-06 20:30N 34°31' E 135°24'0 0.0
2016-May-06 19:24N 34°31' E 135°24'0 0.0
2016-May-06 18:30N 34°31' E 135°24'0 0.0
2016-May-06 17:24N 34°31' E 135°24'0 0.0
2016-May-06 16:30N 34°31' E 135°24'0 0.0
2016-May-06 15:30N 34°31' E 135°24'0 0.0
2016-May-06 14:30N 34°31' E 135°24'0 0.0
2016-May-06 12:30N 34°31' E 135°24'0 0.1
2016-May-06 11:33N 34°31' E 135°24'8 7.6
2016-May-06 10:33N 34°29' E 135°16'1812.8
2016-May-06 09:10N 34°15' E 135°03'222 9.0
2016-May-05 08:33N 34°58' E 139°28'1211.5
2016-May-05 07:33N 35°06' E 139°38'1110.7
2016-May-05 06:33N 35°14' E 139°46'1110.7
2016-May-05 05:33N 35°25' E 139°43'7 5.0
2016-May-05 04:04N 35°21' E 139°51'0 0.0
2016-May-04 14:10N 35°21' E 139°51'1 1.2
2016-May-04 13:33N 35°22' E 139°51'2 1.9
2016-May-04 12:15N 35°22' E 139°54'0 0.0
2016-May-04 11:33N 35°22' E 139°54'0 0.0
2016-May-04 10:27N 35°22' E 139°54'0 0.0
2016-May-04 07:33N 35°22' E 139°54'0 0.0
2016-May-04 05:21N 35°22' E 139°54'0 0.0
2016-May-04 04:21N 35°22' E 139°54'0 0.0
2016-May-04 03:27N 35°22' E 139°54'0 0.0
2016-May-04 02:33N 35°22' E 139°54'0 0.0
2016-May-04 01:30N 35°22' E 139°54'0 0.0
2016-May-04 00:18N 35°22' E 139°54'0 0.0
2016-May-03 23:33N 35°22' E 139°54'0 0.0
2016-May-03 22:24N 35°22' E 139°54'0 0.0
2016-May-03 21:27N 35°22' E 139°54'0 0.0
2016-May-03 20:33N 35°22' E 139°54'0 0.0
2016-May-03 19:21N 35°22' E 139°54'0 0.0
2016-May-03 18:21N 35°22' E 139°54'0 0.0
2016-May-03 17:33N 35°22' E 139°54'0 0.0
2016-May-03 16:33N 35°22' E 139°54'0 0.0
2016-May-03 15:33N 35°22' E 139°54'0 0.0
2016-May-03 14:30N 35°22' E 139°54'0 0.0
2016-May-03 13:30N 35°22' E 139°54'0 0.0
2016-May-03 12:33N 35°22' E 139°54'0 0.0
2016-May-03 11:33N 35°22' E 139°54'0 0.0
2016-May-03 10:33N 35°22' E 139°54'0 0.0
2016-May-03 09:30N 35°22' E 139°54'0 0.0
2016-May-03 08:33N 35°22' E 139°54'0 0.0
2016-May-03 07:33N 35°22' E 139°54'0 0.0
2016-May-03 06:33N 35°22' E 139°54'0 0.0
2016-May-03 05:30N 35°22' E 139°54'0 0.1
2016-May-03 04:33N 35°22' E 139°54'0 0.2
2016-May-03 03:28N 35°22' E 139°54'0 0.0
2016-May-03 02:31N 35°22' E 139°54'0 0.0
2016-May-03 01:31N 35°22' E 139°54'0 0.0
2016-May-03 00:31N 35°22' E 139°54'0 0.0
2016-May-02 23:31N 35°22' E 139°54'0 0.0
2016-May-02 22:31N 35°22' E 139°54'0 0.0
2016-May-02 21:31N 35°22' E 139°54'0 0.0
2016-May-02 20:31N 35°22' E 139°54'0 0.0
2016-May-02 19:31N 35°22' E 139°54'0 0.0
2016-May-02 18:31N 35°22' E 139°54'0 0.0
2016-May-02 17:31N 35°22' E 139°54'0 0.0
2016-May-02 16:31N 35°22' E 139°54'0 0.0
2016-May-02 15:31N 35°22' E 139°54'0 0.0
2016-May-02 14:31N 35°22' E 139°54'0 0.0
2016-May-02 13:28N 35°22' E 139°54'0 0.0
2016-May-02 12:31N 35°22' E 139°54'0 0.0
2016-May-02 11:25N 35°22' E 139°54'0 0.0
2016-May-02 10:31N 35°22' E 139°54'4 4.5
2016-May-02 09:33N 35°25' E 139°50'1212.4
2016-May-02 08:33N 35°36' E 139°57'4 4.1
2016-May-02 07:27N 35°41' E 139°57'0 0.0
2016-May-02 06:30N 35°41' E 139°57'0 0.0
2016-May-02 05:30N 35°41' E 139°57'0 0.0
2016-May-02 04:33N 35°41' E 139°57'0 0.0
2016-May-02 03:27N 35°41' E 139°57'0 0.0
2016-May-02 02:33N 35°41' E 139°57'0 0.0
2016-May-02 01:30N 35°41' E 139°57'0 0.0
2016-May-02 00:30N 35°41' E 139°57'0 0.0
2016-May-01 23:33N 35°41' E 139°57'0 0.0
2016-May-01 22:33N 35°41' E 139°57'0 0.0
2016-May-01 21:33N 35°41' E 139°57'0 0.0
2016-May-01 20:27N 35°41' E 139°57'0 0.0
2016-May-01 19:33N 35°41' E 139°57'0 0.0
2016-May-01 18:33N 35°41' E 139°57'0 0.0
2016-May-01 17:33N 35°41' E 139°57'0 0.0
2016-May-01 16:30N 35°41' E 139°57'0 0.0
2016-May-01 15:33N 35°41' E 139°57'0 0.0
2016-May-01 14:33N 35°41' E 139°57'0 0.0
2016-May-01 13:33N 35°41' E 139°57'0 0.0
2016-May-01 12:33N 35°41' E 139°57'0 0.0
2016-May-01 11:30N 35°41' E 139°57'0 0.0
2016-May-01 10:30N 35°41' E 139°57'0 0.0
2016-May-01 09:30N 35°41' E 139°57'0 0.0
2016-May-01 08:30N 35°41' E 139°57'0 0.0
2016-May-01 07:27N 35°41' E 139°57'0 0.0
2016-May-01 06:33N 35°41' E 139°57'0 0.0
2016-May-01 05:30N 35°41' E 139°57'0 0.0
2016-May-01 04:24N 35°41' E 139°57'0 0.0
2016-May-01 03:30N 35°41' E 139°57'0 0.0
2016-May-01 02:33N 35°41' E 139°57'0 0.0
2016-May-01 01:18N 35°41' E 139°57'0 0.0
2016-May-01 00:30N 35°41' E 139°57'0 0.0
2016-Apr-30 23:30N 35°41' E 139°57'0 0.0
2016-Apr-30 22:34N 35°41' E 139°57'7 6.8
2016-Apr-30 21:34N 35°34' E 139°56'1010.3
2016-Apr-30 20:33N 35°26' E 139°48'1010.2
2016-Apr-30 19:33N 35°16' E 139°46'24610.3
2016-Apr-29 19:33N 34°03' E 135°01'1211.8
2016-Apr-29 18:33N 34°15' E 134°59'1110.7
2016-Apr-29 17:33N 34°26' E 135°00'1010.5
2016-Apr-29 16:33N 34°36' E 135°03'12 8.7
2016-Apr-29 15:12N 34°40' E 134°49'5 0.1
2016-Apr-28 02:09N 34°37' E 134°54'812.7
2016-Apr-28 01:33N 34°36' E 135°03'  

Dump ship's entire track history